createdAt,value
2018-03-23T00:00:17.991Z,0.00
2018-03-23T00:01:18.023Z,0.00
2018-03-23T00:02:18.055Z,0.00
2018-03-23T00:03:18.084Z,0.00
2018-03-23T00:04:18.116Z,0.00
2018-03-23T00:05:18.147Z,0.00
2018-03-23T00:06:18.174Z,0.00
2018-03-23T00:07:18.208Z,0.00
2018-03-23T00:08:18.244Z,0.00
2018-03-23T00:09:18.268Z,0.00
2018-03-23T00:10:18.300Z,0.00
2018-03-23T00:11:18.330Z,0.00
2018-03-23T00:12:18.365Z,0.00
2018-03-23T00:13:18.399Z,0.00
2018-03-23T00:14:18.426Z,0.00
2018-03-23T00:15:18.512Z,0.00
2018-03-23T00:16:18.487Z,0.00
2018-03-23T00:17:18.516Z,0.00
2018-03-23T00:18:18.558Z,0.00
2018-03-23T00:19:18.579Z,0.00
2018-03-23T00:20:18.613Z,0.00
2018-03-23T00:21:18.641Z,0.00
2018-03-23T00:22:18.672Z,0.00
2018-03-23T00:23:18.707Z,0.00
2018-03-23T00:24:18.749Z,0.00
2018-03-23T00:25:18.765Z,0.00
2018-03-23T00:26:18.798Z,0.00
2018-03-23T00:27:18.832Z,0.00
2018-03-23T00:28:18.858Z,0.00
2018-03-23T00:29:18.890Z,0.00
2018-03-23T00:30:18.930Z,0.00
2018-03-23T00:31:18.952Z,0.00
2018-03-23T00:32:18.984Z,0.00
2018-03-23T00:33:19.015Z,0.00
2018-03-23T00:34:19.066Z,0.00
2018-03-23T00:35:19.078Z,0.00
2018-03-23T00:36:19.143Z,0.00
2018-03-23T00:37:19.143Z,0.00
2018-03-23T00:38:19.169Z,0.00
2018-03-23T00:39:19.198Z,0.00
2018-03-23T00:40:19.232Z,0.00
2018-03-23T00:41:19.261Z,0.00
2018-03-23T00:42:19.291Z,0.00
2018-03-23T00:43:19.323Z,0.00
2018-03-23T00:44:19.352Z,0.00
2018-03-23T00:45:19.383Z,0.00
2018-03-23T00:46:19.418Z,0.00
2018-03-23T00:47:19.448Z,0.00
2018-03-23T00:48:19.480Z,0.00
2018-03-23T00:49:19.510Z,0.00
2018-03-23T00:50:19.543Z,0.00
2018-03-23T00:51:19.624Z,0.00
2018-03-23T00:52:19.603Z,0.00
2018-03-23T00:53:19.635Z,0.00
2018-03-23T00:54:19.665Z,0.00
2018-03-23T00:55:19.696Z,0.00
2018-03-23T00:56:19.729Z,0.00
2018-03-23T00:57:19.768Z,0.00
2018-03-23T00:58:19.860Z,0.00
2018-03-23T00:59:19.829Z,0.00
2018-03-23T01:00:19.863Z,0.00
2018-03-23T01:01:19.883Z,0.00
2018-03-23T01:02:19.912Z,0.00
2018-03-23T01:03:19.945Z,0.00
2018-03-23T01:04:19.976Z,0.00
2018-03-23T01:05:20.006Z,0.00
2018-03-23T01:06:20.037Z,0.00
2018-03-23T01:07:20.069Z,0.00
2018-03-23T01:08:20.116Z,0.00
2018-03-23T01:09:20.134Z,0.00
2018-03-23T01:10:20.168Z,0.00
2018-03-23T01:11:20.193Z,0.00
2018-03-23T01:12:20.225Z,0.00
2018-03-23T01:13:20.255Z,0.00
2018-03-23T01:14:20.285Z,0.00
2018-03-23T01:15:20.317Z,0.00
2018-03-23T01:16:20.346Z,0.00
2018-03-23T01:17:20.478Z,0.00
2018-03-23T01:18:20.408Z,0.00
2018-03-23T01:19:20.441Z,0.00
2018-03-23T01:20:20.473Z,0.00
2018-03-23T01:21:20.502Z,0.00
2018-03-23T01:22:20.535Z,0.00
2018-03-23T01:23:20.568Z,0.00
2018-03-23T01:24:20.595Z,0.00
2018-03-23T01:25:20.625Z,0.00
2018-03-23T01:26:20.677Z,0.00
2018-03-23T01:27:20.707Z,0.00
2018-03-23T01:28:20.750Z,0.00
2018-03-23T01:29:20.770Z,0.00
2018-03-23T01:30:20.801Z,0.00
2018-03-23T01:31:20.832Z,0.00
2018-03-23T01:32:20.863Z,0.00
2018-03-23T01:33:20.895Z,0.00
2018-03-23T01:34:20.971Z,0.00
2018-03-23T01:35:20.958Z,0.00
2018-03-23T01:36:20.988Z,0.00
2018-03-23T01:37:21.051Z,0.00
2018-03-23T01:38:21.050Z,0.00
2018-03-23T01:39:21.082Z,0.00
2018-03-23T01:40:21.123Z,0.00
2018-03-23T01:41:21.208Z,0.00
2018-03-23T01:42:21.176Z,0.00
2018-03-23T01:43:21.212Z,0.00
2018-03-23T01:44:21.241Z,0.00
2018-03-23T01:45:21.271Z,0.00
2018-03-23T01:46:21.301Z,0.00
2018-03-23T01:47:21.331Z,0.00
2018-03-23T01:48:21.362Z,0.00
2018-03-23T01:49:21.393Z,0.00
2018-03-23T01:50:21.423Z,0.00
2018-03-23T01:51:21.455Z,0.00
2018-03-23T01:52:21.485Z,0.00
2018-03-23T01:53:21.515Z,0.00
2018-03-23T01:54:21.550Z,0.00
2018-03-23T01:55:21.581Z,0.00
2018-03-23T01:56:21.610Z,0.00
2018-03-23T01:57:21.640Z,0.00
2018-03-23T01:58:21.673Z,0.00
2018-03-23T01:59:21.704Z,0.00
2018-03-23T02:00:21.733Z,0.00
2018-03-23T02:01:21.764Z,0.00
2018-03-23T02:02:21.796Z,0.00
2018-03-23T02:03:21.832Z,0.00
2018-03-23T02:04:21.862Z,0.00
2018-03-23T02:05:21.894Z,0.00
2018-03-23T02:06:21.931Z,0.00
2018-03-23T02:07:21.952Z,0.00
2018-03-23T02:08:21.987Z,0.00
2018-03-23T02:09:22.014Z,0.00
2018-03-23T02:10:22.045Z,0.00
2018-03-23T02:11:22.078Z,0.00
2018-03-23T02:12:22.107Z,0.00
2018-03-23T02:13:22.139Z,0.00
2018-03-23T02:14:22.176Z,0.00
2018-03-23T02:15:22.204Z,0.00
2018-03-23T02:16:22.234Z,0.00
2018-03-23T02:17:22.317Z,0.00
2018-03-23T02:18:22.294Z,0.00
2018-03-23T02:19:22.326Z,0.00
2018-03-23T02:20:22.356Z,0.00
2018-03-23T02:21:22.386Z,0.00
2018-03-23T02:22:22.420Z,0.00
2018-03-23T02:23:22.449Z,0.00
2018-03-23T02:24:22.573Z,0.00
2018-03-23T02:25:22.514Z,0.00
2018-03-23T02:26:22.545Z,0.00
2018-03-23T02:27:22.574Z,0.00
2018-03-23T02:28:22.604Z,0.00
2018-03-23T02:29:22.635Z,0.00
2018-03-23T02:30:22.667Z,0.00
2018-03-23T02:31:22.703Z,0.00
2018-03-23T02:32:22.728Z,0.00
2018-03-23T02:33:22.741Z,0.00
2018-03-23T02:34:22.792Z,0.00
2018-03-23T02:35:22.804Z,0.00
2018-03-23T02:36:22.836Z,0.00
2018-03-23T02:37:22.871Z,0.00
2018-03-23T02:38:22.900Z,0.00
2018-03-23T02:39:22.927Z,0.00
2018-03-23T02:40:22.963Z,0.00
2018-03-23T02:41:23.092Z,0.00
2018-03-23T02:42:23.023Z,0.00
2018-03-23T02:43:23.052Z,0.00
2018-03-23T02:44:23.082Z,0.00
2018-03-23T02:45:23.113Z,0.00
2018-03-23T02:46:23.146Z,0.00
2018-03-23T02:47:23.176Z,0.00
2018-03-23T02:48:23.280Z,0.00
2018-03-23T02:49:23.237Z,0.00
2018-03-23T02:50:23.272Z,0.00
2018-03-23T02:51:23.304Z,0.00
2018-03-23T02:52:23.332Z,0.00
2018-03-23T02:53:23.361Z,0.00
2018-03-23T02:54:23.393Z,0.00
2018-03-23T02:55:23.425Z,0.00
2018-03-23T02:56:23.453Z,0.00
2018-03-23T02:57:23.510Z,0.00
2018-03-23T02:58:23.520Z,0.00
2018-03-23T02:59:23.547Z,0.00
2018-03-23T03:00:23.587Z,0.00
2018-03-23T03:01:23.607Z,0.00
2018-03-23T03:02:23.640Z,0.00
2018-03-23T03:03:23.672Z,0.00
2018-03-23T03:04:23.715Z,0.00
2018-03-23T03:05:23.753Z,0.00
2018-03-23T03:06:23.764Z,0.00
2018-03-23T03:07:23.802Z,0.00
2018-03-23T03:08:23.824Z,0.00
2018-03-23T03:09:23.858Z,0.00
2018-03-23T03:10:23.890Z,0.00
2018-03-23T03:11:23.917Z,0.00
2018-03-23T03:12:23.948Z,0.00
2018-03-23T03:13:23.979Z,0.00
2018-03-23T03:14:24.015Z,0.00
2018-03-23T03:15:24.046Z,0.00
2018-03-23T03:16:24.075Z,0.00
2018-03-23T03:17:24.122Z,0.00
2018-03-23T03:18:24.134Z,0.00
2018-03-23T03:19:24.167Z,0.00
2018-03-23T03:20:24.197Z,0.00
2018-03-23T03:21:24.245Z,0.00
2018-03-23T03:22:24.263Z,0.00
2018-03-23T03:23:24.289Z,0.00
2018-03-23T03:24:24.376Z,0.00
2018-03-23T03:25:24.356Z,0.00
2018-03-23T03:26:24.393Z,0.00
2018-03-23T03:27:24.415Z,0.00
2018-03-23T03:28:24.457Z,0.00
2018-03-23T03:29:24.487Z,0.00
2018-03-23T03:30:24.509Z,0.00
2018-03-23T03:31:24.562Z,0.00
2018-03-23T03:32:24.572Z,0.00
2018-03-23T03:33:24.606Z,0.00
2018-03-23T03:34:24.640Z,0.00
2018-03-23T03:35:24.668Z,0.00
2018-03-23T03:36:24.697Z,0.00
2018-03-23T03:37:24.729Z,0.00
2018-03-23T03:38:24.760Z,0.00
2018-03-23T03:39:24.801Z,0.00
2018-03-23T03:40:24.830Z,0.00
2018-03-23T03:41:24.853Z,0.00
2018-03-23T03:42:24.883Z,0.00
2018-03-23T03:43:24.918Z,0.00
2018-03-23T03:44:24.948Z,0.00
2018-03-23T03:45:24.976Z,0.00
2018-03-23T03:46:25.009Z,0.00
2018-03-23T03:47:25.055Z,0.00
2018-03-23T03:48:25.080Z,0.00
2018-03-23T03:49:25.101Z,0.00
2018-03-23T03:50:25.136Z,0.00
2018-03-23T03:51:25.164Z,0.00
2018-03-23T03:52:25.193Z,0.00
2018-03-23T03:53:25.230Z,0.00
2018-03-23T03:54:25.283Z,0.00
2018-03-23T03:55:25.290Z,0.00
2018-03-23T03:56:25.319Z,0.00
2018-03-23T03:57:25.350Z,0.00
2018-03-23T03:58:25.381Z,0.00
2018-03-23T03:59:25.416Z,0.00
2018-03-23T04:00:25.450Z,0.00
2018-03-23T04:01:25.473Z,0.00
2018-03-23T04:02:25.505Z,0.00
2018-03-23T04:03:25.540Z,0.00
2018-03-23T04:04:25.630Z,0.00
2018-03-23T04:05:25.602Z,0.00
2018-03-23T04:06:25.630Z,0.00
2018-03-23T04:07:25.695Z,0.00
2018-03-23T04:08:25.692Z,0.00
2018-03-23T04:09:25.727Z,0.00
2018-03-23T04:10:25.754Z,0.00
2018-03-23T04:11:25.787Z,0.00
2018-03-23T04:12:25.816Z,0.00
2018-03-23T04:13:25.851Z,0.00
2018-03-23T04:14:25.973Z,0.00
2018-03-23T04:15:25.912Z,0.00
2018-03-23T04:16:25.941Z,0.00
2018-03-23T04:17:25.972Z,0.00
2018-03-23T04:18:26.011Z,0.00
2018-03-23T04:19:26.034Z,0.00
2018-03-23T04:20:26.068Z,0.00
2018-03-23T04:21:26.098Z,0.00
2018-03-23T04:22:26.127Z,0.00
2018-03-23T04:23:26.160Z,0.00
2018-03-23T04:24:26.193Z,0.00
2018-03-23T04:25:26.222Z,0.00
2018-03-23T04:26:26.252Z,0.00
2018-03-23T04:27:26.282Z,0.00
2018-03-23T04:28:26.312Z,0.00
2018-03-23T04:29:26.345Z,0.00
2018-03-23T04:30:26.374Z,0.00
2018-03-23T04:31:26.512Z,0.00
2018-03-23T04:32:26.438Z,0.00
2018-03-23T04:33:26.467Z,0.00
2018-03-23T04:34:26.506Z,0.00
2018-03-23T04:35:26.533Z,0.00
2018-03-23T04:36:26.562Z,0.00
2018-03-23T04:37:26.593Z,0.00
2018-03-23T04:38:26.730Z,0.00
2018-03-23T04:39:26.658Z,0.00
2018-03-23T04:40:26.687Z,0.00
2018-03-23T04:41:26.716Z,0.00
2018-03-23T04:42:26.749Z,0.00
2018-03-23T04:43:26.784Z,0.00
2018-03-23T04:44:26.815Z,0.00
2018-03-23T04:45:26.848Z,0.00
2018-03-23T04:46:26.874Z,0.00
2018-03-23T04:47:26.904Z,4.00
2018-03-23T04:48:26.934Z,0.00
2018-03-23T04:49:26.966Z,0.00
2018-03-23T04:50:27.062Z,4.00
2018-03-23T04:51:27.032Z,0.00
2018-03-23T04:52:27.061Z,4.00
2018-03-23T04:53:27.090Z,4.00
2018-03-23T04:54:27.125Z,4.00
2018-03-23T04:55:27.155Z,8.00
2018-03-23T04:56:27.185Z,4.00
2018-03-23T04:57:27.218Z,4.00
2018-03-23T04:58:27.254Z,8.00
2018-03-23T04:59:27.276Z,12.00
2018-03-23T05:00:27.309Z,8.00
2018-03-23T05:01:27.340Z,16.00
2018-03-23T05:02:27.373Z,20.00
2018-03-23T05:03:27.403Z,20.00
2018-03-23T05:04:27.438Z,24.00
2018-03-23T05:05:27.474Z,28.00
2018-03-23T05:06:27.498Z,32.00
2018-03-23T05:07:27.528Z,40.00
2018-03-23T05:08:27.561Z,48.00
2018-03-23T05:09:27.597Z,56.00
2018-03-23T05:10:27.622Z,64.00
2018-03-23T05:11:27.651Z,68.00
2018-03-23T05:12:27.682Z,76.00
2018-03-23T05:13:27.711Z,88.00
2018-03-23T05:14:27.760Z,92.00
2018-03-23T05:15:27.772Z,88.00
2018-03-23T05:16:27.807Z,96.00
2018-03-23T05:17:27.837Z,132.00
2018-03-23T05:18:27.867Z,152.00
2018-03-23T05:19:27.900Z,160.00
2018-03-23T05:20:27.931Z,172.00
2018-03-23T05:21:27.980Z,196.00
2018-03-23T05:22:27.990Z,212.00
2018-03-23T05:23:28.022Z,220.00
2018-03-23T05:24:28.062Z,244.00
2018-03-23T05:25:28.083Z,244.00
2018-03-23T05:26:28.114Z,256.00
2018-03-23T05:27:28.150Z,260.00
2018-03-23T05:28:28.179Z,260.00
2018-03-23T05:29:28.214Z,264.00
2018-03-23T05:30:28.239Z,304.00
2018-03-23T05:31:28.272Z,348.00
2018-03-23T05:32:28.302Z,380.00
2018-03-23T05:33:28.335Z,412.00
2018-03-23T05:34:28.365Z,452.00
2018-03-23T05:35:28.402Z,488.00
2018-03-23T05:36:28.430Z,524.00
2018-03-23T05:37:28.461Z,564.00
2018-03-23T05:38:28.490Z,532.00
2018-03-23T05:39:28.570Z,500.00
2018-03-23T05:40:28.556Z,524.00
2018-03-23T05:41:28.584Z,572.00
2018-03-23T05:42:28.615Z,628.00
2018-03-23T05:43:28.644Z,640.00
2018-03-23T05:44:28.682Z,708.00
2018-03-23T05:45:28.707Z,720.00
2018-03-23T05:46:28.741Z,820.00
2018-03-23T05:47:28.769Z,900.00
2018-03-23T05:48:28.801Z,976.00
2018-03-23T05:49:28.831Z,1112.00
2018-03-23T05:50:28.876Z,1152.00
2018-03-23T05:51:28.894Z,1136.00
2018-03-23T05:52:28.927Z,1156.00
2018-03-23T05:53:28.957Z,1280.00
2018-03-23T05:54:28.987Z,1376.00
2018-03-23T05:55:29.037Z,1496.00
2018-03-23T05:56:29.053Z,1460.00
2018-03-23T05:57:29.151Z,1460.00
2018-03-23T05:58:29.114Z,1352.00
2018-03-23T05:59:29.143Z,1372.00
2018-03-23T06:00:29.175Z,1336.00
2018-03-23T06:01:29.207Z,1200.00
2018-03-23T06:02:29.237Z,1020.00
2018-03-23T06:03:29.275Z,936.00
2018-03-23T06:04:29.302Z,984.00
2018-03-23T06:05:29.331Z,1020.00
2018-03-23T06:06:29.404Z,1044.00
2018-03-23T06:07:29.392Z,940.00
2018-03-23T06:08:29.425Z,864.00
2018-03-23T06:09:29.456Z,804.00
2018-03-23T06:10:29.490Z,880.00
2018-03-23T06:11:29.520Z,920.00
2018-03-23T06:12:29.553Z,956.00
2018-03-23T06:13:29.591Z,1084.00
2018-03-23T06:14:29.617Z,1244.00
2018-03-23T06:15:29.646Z,1372.00
2018-03-23T06:16:29.675Z,1624.00
2018-03-23T06:17:29.707Z,1648.00
2018-03-23T06:18:29.739Z,1632.00
2018-03-23T06:19:29.771Z,1748.00
2018-03-23T06:20:29.808Z,1676.00
2018-03-23T06:21:29.935Z,1844.00
2018-03-23T06:22:29.867Z,1624.00
2018-03-23T06:23:29.899Z,1652.00
2018-03-23T06:24:29.928Z,1504.00
2018-03-23T06:25:29.959Z,1404.00
2018-03-23T06:26:29.989Z,1428.00
2018-03-23T06:27:30.029Z,1580.00
2018-03-23T06:28:30.054Z,1772.00
2018-03-23T06:29:30.085Z,1832.00
2018-03-23T06:30:30.120Z,1752.00
2018-03-23T06:31:30.149Z,1556.00
2018-03-23T06:32:30.194Z,1396.00
2018-03-23T06:33:30.293Z,1392.00
2018-03-23T06:34:30.246Z,1508.00
2018-03-23T06:35:30.274Z,1664.00
2018-03-23T06:36:30.306Z,1884.00
2018-03-23T06:37:30.337Z,2108.00
2018-03-23T06:38:30.373Z,2100.00
2018-03-23T06:39:30.399Z,2136.00
2018-03-23T06:40:30.452Z,2556.00
2018-03-23T06:41:30.462Z,3064.00
2018-03-23T06:42:30.498Z,3448.00
2018-03-23T06:43:30.527Z,3592.00
2018-03-23T06:44:30.557Z,3636.00
2018-03-23T06:45:30.593Z,3764.00
2018-03-23T06:46:30.622Z,3868.00
2018-03-23T06:47:30.653Z,3756.00
2018-03-23T06:48:30.700Z,3584.00
2018-03-23T06:49:30.717Z,3440.00
2018-03-23T06:50:30.749Z,3596.00
2018-03-23T06:51:30.778Z,3412.00
2018-03-23T06:52:30.810Z,3256.00
2018-03-23T06:53:30.842Z,3232.00
2018-03-23T06:54:30.905Z,3164.00
2018-03-23T06:55:30.903Z,2980.00
2018-03-23T06:56:30.932Z,2988.00
2018-03-23T06:57:30.970Z,3444.00
2018-03-23T06:58:30.997Z,4048.00
2018-03-23T06:59:31.028Z,4472.00
2018-03-23T07:00:31.073Z,4864.00
2018-03-23T07:01:31.091Z,5360.00
2018-03-23T07:02:31.123Z,5216.00
2018-03-23T07:03:31.160Z,4928.00
2018-03-23T07:04:31.197Z,5028.00
2018-03-23T07:05:31.218Z,4740.00
2018-03-23T07:06:31.253Z,4972.00
2018-03-23T07:07:31.285Z,4936.00
2018-03-23T07:08:31.324Z,4876.00
2018-03-23T07:09:31.349Z,5584.00
2018-03-23T07:10:31.381Z,6308.00
2018-03-23T07:11:31.412Z,6392.00
2018-03-23T07:12:31.441Z,6392.00
2018-03-23T07:13:31.471Z,6404.00
2018-03-23T07:14:31.507Z,6400.00
2018-03-23T07:15:31.543Z,6596.00
2018-03-23T07:16:31.574Z,6832.00
2018-03-23T07:17:31.602Z,6896.00
2018-03-23T07:18:31.632Z,6856.00
2018-03-23T07:19:31.669Z,6696.00
2018-03-23T07:20:31.703Z,6612.00
2018-03-23T07:21:31.736Z,6736.00
2018-03-23T07:22:31.761Z,6688.00
2018-03-23T07:23:31.793Z,6360.00
2018-03-23T07:24:31.825Z,6364.00
2018-03-23T07:25:31.861Z,6536.00
2018-03-23T07:26:31.891Z,7016.00
2018-03-23T07:27:31.924Z,7416.00
2018-03-23T07:28:31.957Z,7504.00
2018-03-23T07:29:31.986Z,8176.00
2018-03-23T07:30:32.027Z,7992.00
2018-03-23T07:31:32.063Z,7676.00
2018-03-23T07:32:32.085Z,8104.00
2018-03-23T07:33:32.118Z,8376.00
2018-03-23T07:34:32.155Z,8452.00
2018-03-23T07:35:32.182Z,9148.00
2018-03-23T07:36:32.215Z,10012.00
2018-03-23T07:37:32.246Z,10568.00
2018-03-23T07:38:32.277Z,10564.00
2018-03-23T07:39:32.313Z,10280.00
2018-03-23T07:40:32.342Z,9576.00
2018-03-23T07:41:32.374Z,8792.00
2018-03-23T07:42:32.408Z,8836.00
2018-03-23T07:43:32.442Z,9000.00
2018-03-23T07:44:32.478Z,9260.00
2018-03-23T07:45:32.510Z,9072.00
2018-03-23T07:46:32.551Z,9364.00
2018-03-23T07:47:32.573Z,9460.00
2018-03-23T07:48:32.612Z,8976.00
2018-03-23T07:49:32.638Z,8388.00
2018-03-23T07:50:32.691Z,8868.00
2018-03-23T07:51:32.706Z,9540.00
2018-03-23T07:52:32.743Z,9048.00
2018-03-23T07:53:32.771Z,8924.00
2018-03-23T07:54:32.857Z,9372.00
2018-03-23T07:55:32.836Z,9792.00
2018-03-23T07:56:32.872Z,10020.00
2018-03-23T07:57:32.904Z,9376.00
2018-03-23T07:58:32.936Z,8224.00
2018-03-23T07:59:32.971Z,7216.00
2018-03-23T08:00:33.005Z,6868.00
2018-03-23T08:01:33.036Z,7064.00
2018-03-23T08:02:33.067Z,7532.00
2018-03-23T08:03:33.102Z,8124.00
2018-03-23T08:04:33.145Z,8616.00
2018-03-23T08:05:33.168Z,9312.00
2018-03-23T08:06:33.200Z,10016.00
2018-03-23T08:07:33.238Z,10300.00
2018-03-23T08:08:33.270Z,10748.00
2018-03-23T08:09:33.301Z,10732.00
2018-03-23T08:10:33.371Z,10596.00
2018-03-23T08:11:33.372Z,10692.00
2018-03-23T08:12:33.401Z,10664.00
2018-03-23T08:13:33.435Z,10616.00
2018-03-23T08:14:33.466Z,10648.00
2018-03-23T08:15:33.502Z,10860.00
2018-03-23T08:16:33.537Z,11216.00
2018-03-23T08:17:33.568Z,11968.00
2018-03-23T08:18:33.599Z,12568.00
2018-03-23T08:19:33.637Z,12504.00
2018-03-23T08:20:33.687Z,11628.00
2018-03-23T08:21:33.702Z,10324.00
2018-03-23T08:22:33.737Z,9464.00
2018-03-23T08:23:33.772Z,9440.00
2018-03-23T08:24:33.802Z,9612.00
2018-03-23T08:25:33.837Z,9992.00
2018-03-23T08:26:33.874Z,10640.00
2018-03-23T08:27:33.907Z,11220.00
2018-03-23T08:28:33.938Z,12032.00
2018-03-23T08:29:33.974Z,12584.00
2018-03-23T08:30:34.010Z,12544.00
2018-03-23T08:31:34.045Z,12524.00
2018-03-23T08:32:34.073Z,12968.00
2018-03-23T08:33:34.108Z,13836.00
2018-03-23T08:34:34.143Z,14444.00
2018-03-23T08:35:34.178Z,14836.00
2018-03-23T08:36:34.211Z,14908.00
2018-03-23T08:37:34.276Z,14924.00
2018-03-23T08:38:34.277Z,14868.00
2018-03-23T08:39:34.313Z,14544.00
2018-03-23T08:40:34.357Z,14256.00
2018-03-23T08:41:34.398Z,13932.00
2018-03-23T08:42:34.427Z,14116.00
2018-03-23T08:43:34.454Z,14696.00
2018-03-23T08:44:34.587Z,14844.00
2018-03-23T08:45:34.523Z,14764.00
2018-03-23T08:46:34.557Z,14516.00
2018-03-23T08:47:34.598Z,13568.00
2018-03-23T08:48:34.626Z,12000.00
2018-03-23T08:49:34.660Z,11100.00
2018-03-23T08:50:34.695Z,11252.00
2018-03-23T08:51:34.864Z,11332.00
2018-03-23T08:52:34.764Z,10768.00
2018-03-23T08:53:34.852Z,10000.00
2018-03-23T08:54:34.839Z,9256.00
2018-03-23T08:55:34.878Z,8924.00
2018-03-23T08:56:34.906Z,8596.00
2018-03-23T08:57:34.941Z,8504.00
2018-03-23T08:58:34.974Z,9096.00
2018-03-23T08:59:35.009Z,9888.00
2018-03-23T09:00:35.046Z,10128.00
2018-03-23T09:01:35.081Z,10000.00
2018-03-23T09:02:35.123Z,9256.00
2018-03-23T09:03:35.160Z,8920.00
2018-03-23T09:04:35.183Z,8984.00
2018-03-23T09:05:35.223Z,9092.00
2018-03-23T09:06:35.253Z,8928.00
2018-03-23T09:07:35.290Z,9004.00
2018-03-23T09:08:35.332Z,9360.00
2018-03-23T09:09:35.392Z,9636.00
2018-03-23T09:10:35.403Z,10424.00
2018-03-23T09:11:35.429Z,12044.00
2018-03-23T09:12:35.467Z,13916.00
2018-03-23T09:13:35.497Z,14440.00
2018-03-23T09:14:35.540Z,12564.00
2018-03-23T09:15:35.566Z,10428.00
2018-03-23T09:16:35.658Z,9364.00
2018-03-23T09:17:35.652Z,8700.00
2018-03-23T09:18:35.673Z,8212.00
2018-03-23T09:19:35.708Z,7824.00
2018-03-23T09:20:35.807Z,7396.00
2018-03-23T09:21:35.775Z,7044.00
2018-03-23T09:22:35.813Z,7084.00
2018-03-23T09:23:35.845Z,7916.00
2018-03-23T09:24:35.884Z,9700.00
2018-03-23T09:25:35.917Z,11668.00
2018-03-23T09:26:35.951Z,13080.00
2018-03-23T09:27:35.984Z,13612.00
2018-03-23T09:28:36.020Z,13912.00
2018-03-23T09:29:36.055Z,14232.00
2018-03-23T09:30:36.090Z,14100.00
2018-03-23T09:31:36.181Z,13648.00
2018-03-23T09:32:36.162Z,13188.00
2018-03-23T09:33:36.194Z,12552.00
2018-03-23T09:34:36.229Z,11120.00
2018-03-23T09:35:36.265Z,9368.00
2018-03-23T09:36:36.331Z,8332.00
2018-03-23T09:37:36.336Z,7968.00
2018-03-23T09:38:36.370Z,8068.00
2018-03-23T09:39:36.409Z,8404.00
2018-03-23T09:40:36.438Z,8632.00
2018-03-23T09:41:36.576Z,8920.00
2018-03-23T09:42:36.507Z,9300.00
2018-03-23T09:43:36.545Z,9752.00
2018-03-23T09:44:36.579Z,9960.00
2018-03-23T09:45:36.615Z,10156.00
2018-03-23T09:46:36.660Z,10488.00
2018-03-23T09:47:36.681Z,10448.00
2018-03-23T09:48:36.803Z,10780.00
2018-03-23T09:49:36.758Z,11188.00
2018-03-23T09:50:36.787Z,11344.00
2018-03-23T09:51:36.823Z,10964.00
2018-03-23T09:52:36.857Z,10592.00
2018-03-23T09:53:36.893Z,10020.00
2018-03-23T09:54:36.929Z,9204.00
2018-03-23T09:55:36.986Z,8652.00
2018-03-23T09:56:36.999Z,8208.00
2018-03-23T09:57:37.034Z,8108.00
2018-03-23T09:58:37.068Z,8176.00
2018-03-23T09:59:37.105Z,8252.00
2018-03-23T10:00:37.154Z,8728.00
2018-03-23T10:01:37.173Z,9516.00
2018-03-23T10:02:37.205Z,9940.00
2018-03-23T10:03:37.248Z,9520.00
2018-03-23T10:04:37.282Z,8584.00
2018-03-23T10:05:37.311Z,8136.00
2018-03-23T10:06:37.350Z,7968.00
2018-03-23T10:07:37.434Z,8068.00
2018-03-23T10:08:37.418Z,8560.00
2018-03-23T10:09:37.465Z,8648.00
2018-03-23T10:10:37.484Z,8668.00
2018-03-23T10:11:37.529Z,9436.00
2018-03-23T10:12:37.557Z,10752.00
2018-03-23T10:13:37.595Z,12572.00
2018-03-23T10:14:37.686Z,14108.00
2018-03-23T10:15:37.659Z,14836.00
2018-03-23T10:16:37.699Z,15212.00
2018-03-23T10:17:37.730Z,15492.00
2018-03-23T10:18:37.766Z,15860.00
2018-03-23T10:19:37.800Z,16544.00
2018-03-23T10:20:37.837Z,16480.00
2018-03-23T10:21:37.936Z,15664.00
2018-03-23T10:22:37.906Z,15324.00
2018-03-23T10:23:37.943Z,15816.00
2018-03-23T10:24:37.983Z,15540.00
2018-03-23T10:25:38.012Z,14092.00
2018-03-23T10:26:38.051Z,13248.00
2018-03-23T10:27:38.084Z,13200.00
2018-03-23T10:28:38.157Z,13416.00
2018-03-23T10:29:38.156Z,13824.00
2018-03-23T10:30:38.192Z,14232.00
2018-03-23T10:31:38.222Z,13136.00
2018-03-23T10:32:38.261Z,11456.00
2018-03-23T10:33:38.294Z,10320.00
2018-03-23T10:34:38.337Z,9232.00
2018-03-23T10:35:38.365Z,8244.00
2018-03-23T10:36:38.400Z,7832.00
2018-03-23T10:37:38.436Z,7460.00
2018-03-23T10:38:38.488Z,6824.00
2018-03-23T10:39:38.508Z,6164.00
2018-03-23T10:40:38.547Z,5740.00
2018-03-23T10:41:38.582Z,5752.00
2018-03-23T10:42:38.649Z,6052.00
2018-03-23T10:43:38.653Z,6308.00
2018-03-23T10:44:38.690Z,6224.00
2018-03-23T10:45:38.840Z,5740.00
2018-03-23T10:46:38.757Z,5564.00
2018-03-23T10:47:38.793Z,5888.00
2018-03-23T10:48:38.828Z,6036.00
2018-03-23T10:49:38.864Z,5816.00
2018-03-23T10:50:38.907Z,5564.00
2018-03-23T10:51:38.933Z,5336.00
2018-03-23T10:52:38.980Z,5052.00
2018-03-23T10:53:39.008Z,5108.00
2018-03-23T10:54:39.043Z,5708.00
2018-03-23T10:55:39.078Z,6524.00
2018-03-23T10:56:39.113Z,7024.00
2018-03-23T10:57:39.184Z,7076.00
2018-03-23T10:58:39.191Z,7176.00
2018-03-23T10:59:39.221Z,7516.00
2018-03-23T11:00:39.252Z,8388.00
2018-03-23T11:01:39.286Z,9592.00
2018-03-23T11:02:39.325Z,10636.00
2018-03-23T11:03:39.385Z,10448.00
2018-03-23T11:04:39.396Z,10388.00
2018-03-23T11:05:39.430Z,10764.00
2018-03-23T11:06:39.468Z,11012.00
2018-03-23T11:07:39.498Z,11552.00
2018-03-23T11:08:39.535Z,12240.00
2018-03-23T11:09:39.567Z,12452.00
2018-03-23T11:10:39.606Z,11964.00
2018-03-23T11:11:39.658Z,11460.00
2018-03-23T11:12:39.676Z,11224.00
2018-03-23T11:13:39.709Z,10908.00
2018-03-23T11:14:39.745Z,10772.00
2018-03-23T11:15:39.790Z,10424.00
2018-03-23T11:16:39.815Z,9684.00
2018-03-23T11:17:39.856Z,9484.00
2018-03-23T11:18:39.899Z,9916.00
2018-03-23T11:19:39.921Z,11104.00
2018-03-23T11:20:39.959Z,12408.00
2018-03-23T11:21:39.996Z,14408.00
2018-03-23T11:22:40.031Z,17248.00
2018-03-23T11:23:40.069Z,18976.00
2018-03-23T11:24:40.102Z,19424.00
2018-03-23T11:25:40.149Z,18336.00
2018-03-23T11:26:40.171Z,17856.00
2018-03-23T11:27:40.215Z,17888.00
2018-03-23T11:28:40.242Z,18336.00
2018-03-23T11:29:40.276Z,19104.00
2018-03-23T11:30:40.317Z,19200.00
2018-03-23T11:31:40.352Z,19136.00
2018-03-23T11:32:40.456Z,19168.00
2018-03-23T11:33:40.424Z,19136.00
2018-03-23T11:34:40.464Z,18272.00
2018-03-23T11:35:40.499Z,17632.00
2018-03-23T11:36:40.542Z,17440.00
2018-03-23T11:37:40.572Z,16768.00
2018-03-23T11:38:40.608Z,15560.00
2018-03-23T11:39:40.643Z,14544.00
2018-03-23T11:40:40.681Z,14564.00
2018-03-23T11:41:40.717Z,14396.00
2018-03-23T11:42:40.765Z,14352.00
2018-03-23T11:43:40.792Z,15072.00
2018-03-23T11:44:40.829Z,15996.00
2018-03-23T11:45:40.865Z,16096.00
2018-03-23T11:46:40.910Z,16168.00
2018-03-23T11:47:40.956Z,16672.00
2018-03-23T11:48:40.979Z,17216.00
2018-03-23T11:49:41.013Z,17344.00
2018-03-23T11:50:41.054Z,16736.00
2018-03-23T11:51:41.096Z,16384.00
2018-03-23T11:52:41.125Z,16480.00
2018-03-23T11:53:41.162Z,15768.00
2018-03-23T11:54:41.212Z,15024.00
2018-03-23T11:55:41.243Z,14712.00
2018-03-23T11:56:41.275Z,14980.00
2018-03-23T11:57:41.309Z,15960.00
2018-03-23T11:58:41.453Z,16512.00
2018-03-23T11:59:41.390Z,15876.00
2018-03-23T12:00:41.434Z,15000.00
2018-03-23T12:01:41.459Z,13448.00
2018-03-23T12:02:41.500Z,11436.00
2018-03-23T12:03:41.537Z,9660.00
2018-03-23T12:04:41.577Z,8952.00
2018-03-23T12:05:41.627Z,9532.00
2018-03-23T12:06:41.651Z,10148.00
2018-03-23T12:07:41.690Z,9324.00
2018-03-23T12:08:41.726Z,8792.00
2018-03-23T12:09:41.764Z,8468.00
2018-03-23T12:10:41.802Z,8352.00
2018-03-23T12:11:41.841Z,8172.00
2018-03-23T12:12:41.874Z,8428.00
2018-03-23T12:13:41.913Z,9084.00
2018-03-23T12:14:41.951Z,10080.00
2018-03-23T12:15:41.987Z,11216.00
2018-03-23T12:16:42.022Z,11692.00
2018-03-23T12:17:42.062Z,11916.00
2018-03-23T12:18:42.097Z,12072.00
2018-03-23T12:19:42.136Z,12104.00
2018-03-23T12:20:42.185Z,12224.00
2018-03-23T12:21:42.208Z,12488.00
2018-03-23T12:22:42.264Z,12916.00
2018-03-23T12:23:42.282Z,13280.00
2018-03-23T12:24:42.325Z,13812.00
2018-03-23T12:25:42.358Z,14088.00
2018-03-23T12:26:42.393Z,13736.00
2018-03-23T12:27:42.437Z,13596.00
2018-03-23T12:28:42.474Z,13528.00
2018-03-23T12:29:42.507Z,13408.00
2018-03-23T12:30:42.548Z,13196.00